Bewolking Meer informatie Parkstad Weather Satellite


Neerslag Meer informatie Parkstad Rain Snow Radar


Onweersbuien Meer informatie Parkstad Lighntning


24/7 Weercamera Meer informatie Parkstad Weathercam


Natuurbrandrisico
CBI






Het weer levert geen direct gevaar op in Parkstad (045)    Er zijn geen waarschuwingen afgegeven voor Parkstad (045)

METAR rapporten vliegvelden

   
EHBK - Beek Nederland
Gewijzigd: 19-04-2018 18:55
Helder  
Helder  
   Wind: Oosten 16.7 km/h
Wind: Oosten 16.7 km/h
Temperatuur: 26°C
Dauwpunt: 9°C
Vochtigheid: 34%
Barometer: 1023 hPa
Satelliet beelden: Helder
Zicht: meer dan 10 km
Bewolking: Helder
EHBK 191655Z AUTO 08009KT 050V120 9999 NCD 26/09 Q1023 NOSIG
EHBK - Maastricht Nederland
Gewijzigd: 19-04-2018 18:55
Helder  
Helder  
   Wind: Oosten 16.7 km/h
Wind: Oosten 16.7 km/h
Temperatuur: 26°C
Dauwpunt: 9°C
Vochtigheid: 34%
Barometer: 1023 hPa
Satelliet beelden: Helder
Zicht: meer dan 10 km
Bewolking: Helder
EHBK 191655Z AUTO 08009KT 050V120 9999 NCD 26/09 Q1023 NOSIG
EBLG - Liège België
Gewijzigd: 19-04-2018 18:50
Helder  
Helder  
   Wind: ZZW 14.8 km/h
Wind: ZZW 14.8 km/h
Temperatuur: 26°C
Dauwpunt: 6°C
Vochtigheid: 28%
Barometer: 1024 hPa
Zicht: meer dan 10 km
Bewolking: Helder
EBLG 191650Z 21008KT CAVOK 26/06 Q1024 NOSIG
EDDK - Köln/Bonn Duitsland
Gewijzigd: 19-04-2018 18:50
Helder  
Helder  
   Wind: ZO 13 km/h
Wind: ZO 13 km/h
Temperatuur: 27°C
Dauwpunt: 4°C
Vochtigheid: 23%
Barometer: 1024 hPa
Zicht: meer dan 10 km
Bewolking: Helder
EDDK 191650Z 13007KT 070V160 CAVOK 27/04 Q1024 NOSIG
EDDL - Düsseldorf Duitsland
Gewijzigd: 19-04-2018 18:50
Helder  
Helder  
   Wind: ZZO 16.7 km/h
Wind: ZZO 16.7 km/h
Temperatuur: 27°C
Dauwpunt: 5°C
Vochtigheid: 24%
Barometer: 1024 hPa
Zicht: meer dan 10 km
Bewolking: Helder
EDDL 191650Z 16009KT 130V190 CAVOK 27/05 Q1024 NOSIG
EHEH - Eindhoven Nederland
Gewijzigd: 19-04-2018 18:55
Helder  
Helder  
   Wind: ZO 14.8 km/h
Wind: ZO 14.8 km/h
Temperatuur: 28°C
Dauwpunt: 7°C
Vochtigheid: 26%
Barometer: 1023 hPa
Satelliet beelden: Helder
Zicht: meer dan 10 km
Bewolking: Helder
EHEH 191655Z AUTO 13008KT 090V150 9999 NCD 28/07 Q1023 BLU 12008KT CAVOK
ELLX - Luxemburg Luxemburg
Gewijzigd: 19-04-2018 18:50
Helder  
Helder  
   Wind: ZW 9.3 km/h
Wind: ZW 9.3 km/h
Temperatuur: 25°C
Dauwpunt: 6°C
Vochtigheid: 30%
Barometer: 1025 hPa
Zicht: meer dan 10 km
Bewolking: Helder
ELLX 191650Z 22005KT 190V250 CAVOK 25/06 Q1025 NOSIG
EGLL - London England
Gewijzigd: 19-04-2018 18:50
Helder  
Helder  
   Wind: varieert 5.6 km/h
Wind: varieert 5.6 km/h
Temperatuur: 27°C
Dauwpunt: 8°C
Vochtigheid: 30%
Barometer: 1022 hPa
Satelliet beelden: Helder
Zicht: meer dan 10 km
Bewolking: Helder
EGLL 191650Z AUTO VRB03KT 9999 NCD 27/08 Q1022
EBAW - Antwerpen België
Gewijzigd: 19-04-2018 18:50
Helder  
Helder  
   Wind: ZZO 9.3 km/h
Wind: ZZO 9.3 km/h
Temperatuur: 28°C
Dauwpunt: 8°C
Vochtigheid: 28%
Barometer: 1023 hPa
Zicht: meer dan 10 km
Bewolking: Helder
EBAW 191650Z 16005KT 130V220 CAVOK 28/08 Q1023 NOSIG
EBOS - Oostende België
Gewijzigd: 19-04-2018 18:50
Helder  
Helder  
   Wind: NNO 9.3 km/h
Wind: NNO 9.3 km/h
Temperatuur: 23°C
Dauwpunt: 11°C
Vochtigheid: 47%
Barometer: 1023 hPa
Zicht: meer dan 10 km
Bewolking: Helder
EBOS 191650Z 03005KT CAVOK 23/11 Q1023 NOSIG
LEAL - La Nucia Spanje
Gewijzigd: 19-04-2018 19:00
Licht bewolkt  
Licht bewolkt  
   Wind: ONO 14.8 km/h
Wind: ONO 14.8 km/h
Temperatuur: 17°C
Dauwpunt: 14°C
Vochtigheid: 83%
Barometer: 1022 hPa
Satelliet beelden: Licht bewolkt
Zicht: meer dan 10 km
Bewolking: Licht bewolkt 366 m
LEAL 191700Z 07008KT 040V100 9999 FEW012 17/14 Q1022 NOSIG
TNCA - Oranjestad Aruba
Gewijzigd: 19-04-2018 19:00
Licht bewolkt  
Licht bewolkt  
   Wind: Oosten 42.6 km/h<br />Gust to 42.6 km/h
Wind: Oosten 42.6 km/h
Gust to 42.6 km/h
Temperatuur: 32°C
Gevoelstemperatuur: 39°C
Dauwpunt: 25°C
Vochtigheid: 67%
Barometer: 1013 hPa
Satelliet beelden: Licht bewolkt
Zicht: meer dan 10 km
Bewolking: Licht bewolkt 701 m
TNCA 191700Z 09023G34KT 070V130 9999 FEW023 32/25 Q1013 NOSIG
TNCC - Willemstad Curacao
Gewijzigd: 19-04-2018 18:00
Licht bewolkt  
Licht bewolkt  
   Wind: OZO 33.3 km/h<br />Gust to 33.3 km/h
Wind: OZO 33.3 km/h
Gust to 33.3 km/h
Temperatuur: 30°C
Gevoelstemperatuur: 33°C
Dauwpunt: 21°C
Vochtigheid: 59%
Barometer: 1016 hPa
Satelliet beelden: Licht bewolkt
Zicht: meer dan 10 km
Bewolking: Licht bewolkt 579 m
TNCC 191600Z 11018G29KT 9999 FEW019 30/21 Q1016 NOSIG
MTPP - Port au Prince Haitië
Gewijzigd: 19-04-2018 19:00
Gedeeltelijk bewolkt  
Gedeeltelijk bewolkt  
   Wind: Oosten 25.9 km/h
Wind: Oosten 25.9 km/h
Temperatuur: 32°C
Gevoelstemperatuur: 35°C
Dauwpunt: 21°C
Vochtigheid: 52%
Barometer: 1015 hPa
Satelliet beelden: Gedeeltelijk bewolkt
Zicht: meer dan 10 km
Bewolking: Gedeeltelijk bewolkt 853 m
MTPP 191700Z 10014KT 9999 SCT028CB 32/21 Q1015 A3000 RMK
ENVA - Trondheim Noorwegen
Gewijzigd: 19-04-2018 18:50
Helder  
Helder  
   Wind: OZO 11.1 km/h
Wind: OZO 11.1 km/h
Temperatuur: 16°C
Dauwpunt: 4°C
Vochtigheid: 45%
Barometer: 1020 hPa
Zicht: meer dan 10 km
Bewolking: Helder
ENVA 191650Z 11006KT CAVOK 16/04 Q1020 NOSIG RMK WIND 670FT 15004KT
ENBO - Bodø Noorwegen
Gewijzigd: 19-04-2018 18:50
Wat regen mogelijk, Grotendeels bewolkt  
Wat regen mogelijk, Grotendeels bewolkt  
   Wind: Oosten 25.9 km/h
Wind: Oosten 25.9 km/h
Temperatuur: 8°C
Voelt als: 4°C
Dauwpunt: 6°C
Vochtigheid: 87%
Barometer: 1019 hPa
Satelliet beelden: Grotendeels bewolkt
Zicht: meer dan 10 km
Bewolking: Licht bewolkt 305 m,
Gedeeltelijk bewolkt 610 m,
Grotendeels bewolkt 914 m
ENBO 191650Z 09014KT 9999 -RA FEW010 SCT020 BKN030 08/06 Q1019 TEMPO 2000 RADZ BR OVC004
ETNG - Geilenkirchen Duitsland
Gewijzigd: 19-04-2018 18:50
Helder  
Helder  
   Wind: Oosten 25.9 km/h
Wind: Oosten 25.9 km/h
Temperatuur: 27°C
Dauwpunt: 8°C
Vochtigheid: 30%
Barometer: 1024 hPa
Zicht: meer dan 10 km
Bewolking: Helder
ETNG 191650Z 10014KT CAVOK 27/08 Q1024 NOSIG
 

Script ontwikkeld door  Saratoga-weather.org Aangepast voor de template door  Weerstation Leuven

U vindt ons ook hier:

Het Weer Aktueel

UK Metoffice

European Weather Network

WeatherCloud

Weather Underground

Benelux Weer Netwerk

AWEKAS

WeatherlinkIP

Citizen Weather Observer Program (CWOP)

HAMweather, WeatherForYou, PWS Weather

Apparatuur in gebruik:

Hardwareleverancier
Weerhuisje

Weerstation
Vantage Pro2+ +UV

Weercomputer's
alix3d2 & wl330n

Weerprogramma's
Smartbedded

Satelliet NOAA's
WRX137 & KX137

Satelliet Eumetcast
Ayecka SR1 & Triax

Bliksemdetectie
Boltek StormTracker

Webleverancier
VPS Linux V80

Weerhuisje

Vantage Pro2+ +UV

alix3d2 & wl330n

Smartbedded

WRX137 & KX137

Ayecka SR1 & Triax

Boltek StormTracker

VPS Linux V80